首页
METAR-TAF:

METAR-TAF

机场 :

丹佛國際機場

丹佛, 科羅拉多州, 美国

纬度: 39-49-58N, 经度: 104-39-27W, 海拔: 1655米

当前天气观测

该预报发布于1小时和1分钟前的15:53 UTC
风速8节,风向
温度 4°C
湿度 44%
气压 1017 hPa
能見度: 16.1公里
少量云层高于7000英尺
少量云层高于15000英尺
散云层高于22000英尺

METAR: KDEN 241553Z 19008KT 10SM FEW070 FEW150 SCT220 04/M07 A3002 RMK AO2 SLP167 T00441072

时间: 09:54 (16:54 UTC)

预报

该预报发布于1小时和33分钟前的15:21 UTC
预报有效从24日的 15点(UTC)到 25日的 18点(UTC)
风速6节,风向
能見度: 10公里
散云层高于22000英尺
从 24日的 1800点(UTC)
风速7节,风向
能見度: 10公里
少量云层高于9000英尺
多云层高于22000英尺
从 25日的 0100点(UTC)
风速9节,风向东南
能見度: 10公里
散云层高于12000英尺
多云层高于18000英尺
从 25日的 0500点(UTC)
风速9节,风向
能見度: 10公里
散云层高于10000英尺
多云层高于15000英尺
从 25日的 1200点(UTC)
风速7节,风向南转西南
能見度: 10公里
多云层高于8000英尺

TAF: KDEN 241521Z 2415/2518 18006KT P6SM SCT220 FM241800 10007KT P6SM FEW090 BKN220 FM250100 14009KT P6SM SCT120 BKN180 FM250500 19009KT P6SM SCT100 BKN150 FM251200 21007KT P6SM BKN080

超过4000个机场的气象观测和天气预报(METAR&TAF报告)。

可查询的气象台以黄色和红色小点在地图上表示。

将鼠标移到小点上方,可查看气象台名称。

然后点击查看天气观测和预报。

如需切换地图:点击带黑十字的绿色按钮放大地图;点击带横线的绿色按钮缩小地图;或者点击绿色箭头查看邻近地区的地图。


METAR-TAF: